Time;durP1;ratioP1;P1;durP2;ratioP2;P2;SDS_P1;SDS_P2;PMS_P1;PMS_P2;Temp;Humidity;BMP_temperature;BMP_pressure;BME280_temperature;BME280_humidity;BME280_pressure;Samples;Min_cycle;Max_cycle;Signal;HPM_P1;HPM_P2
2023/09/18 00:01:41;;;;;;;;;;;;;;;23.22;58.65;95333.94;10357849;28;1875;-64
2023/09/18 00:06:42;;;;;;;;;;;;;;;23.20;58.90;95322.91;10369949;28;1941;-63
2023/09/18 00:11:42;;;;;;;;;;;;;;;23.18;58.67;95325.84;10338422;28;1956;-64
2023/09/18 00:16:42;;;;;;;;;;;;;;;23.17;58.49;95318.97;10352981;28;2916;-64
2023/09/18 00:21:42;;;;;;;;;;;;;;;23.16;58.14;95314.75;10360890;28;1958;-63
2023/09/18 00:26:43;;;;;;;;;;;;;;;23.15;58.23;95307.91;10362325;28;1987;-64
2023/09/18 00:31:43;;;;;;;;;;;;;;;23.14;57.96;95295.00;10364672;28;1903;-64
2023/09/18 00:36:44;;;;;;;;;;;;;;;23.13;57.96;95282.84;10350031;28;1893;-63
2023/09/18 00:41:49;;;;;;;;;;;;;;;23.12;57.82;95281.31;10364257;28;4694;-61
2023/09/18 00:46:49;;;;;;;;;;;;;;;23.11;57.62;95271.81;10338493;28;2192;-63
2023/09/18 00:51:49;;;;;;;;;;;;;;;23.10;57.39;95271.00;10352897;28;1973;-64
2023/09/18 00:56:53;;;;;;;;;;;;;;;23.08;57.24;95265.25;10345411;28;2293;-63
2023/09/18 01:01:54;;;;;;;;;;;;;;;23.08;57.08;95261.84;10342523;28;2864;-63
2023/09/18 01:06:58;;;;;;;;;;;;;;;23.07;57.04;95249.69;10368694;28;2322;-63
2023/09/18 01:12:15;;;;;;;;;;;;;;;23.07;56.84;95241.75;10334104;28;1961;-64
2023/09/18 01:17:15;;;;;;;;;;;;;;;23.05;56.66;95242.06;10348314;28;1962;-63
2023/09/18 01:22:17;;;;;;;;;;;;;;;23.04;56.75;95237.84;10367715;28;1970;-63
2023/09/18 01:27:17;;;;;;;;;;;;;;;23.05;56.45;95246.56;10371752;28;1946;-63
2023/09/18 01:32:18;;;;;;;;;;;;;;;23.05;56.01;95243.94;10366035;28;1930;-63
2023/09/18 01:37:20;;;;;;;;;;;;;;;23.04;56.23;95242.38;10358896;28;1990;-63
2023/09/18 01:42:21;;;;;;;;;;;;;;;23.04;56.18;95256.34;10358621;28;4729;-63
2023/09/18 01:47:23;;;;;;;;;;;;;;;23.04;56.08;95239.75;10348177;28;2861;-63
2023/09/18 01:52:23;;;;;;;;;;;;;;;23.00;55.70;95213.09;10371949;28;2004;-64
2023/09/18 01:57:23;;;;;;;;;;;;;;;23.01;55.51;95217.31;10380350;28;1967;-63
2023/09/18 02:02:23;;;;;;;;;;;;;;;23.01;55.42;95198.03;10356348;28;2207;-63
2023/09/18 02:07:24;;;;;;;;;;;;;;;23.00;55.42;95210.47;10364881;28;1946;-63
2023/09/18 02:12:24;;;;;;;;;;;;;;;22.99;55.01;95208.13;10368603;28;1962;-63
2023/09/18 02:17:24;;;;;;;;;;;;;;;22.99;55.46;95200.19;10356172;28;1876;-63
2023/09/18 02:22:24;;;;;;;;;;;;;;;22.99;54.85;95192.25;10369816;28;1969;-63
2023/09/18 02:27:25;;;;;;;;;;;;;;;22.99;54.82;95192.25;10359633;28;2007;-62
2023/09/18 02:32:25;;;;;;;;;;;;;;;22.99;54.87;95200.19;10349270;28;2751;-63
2023/09/18 02:37:25;;;;;;;;;;;;;;;22.97;54.67;95189.94;10348958;28;1988;-63
2023/09/18 02:42:25;;;;;;;;;;;;;;;22.96;54.28;95183.06;10364208;28;4682;-63
2023/09/18 02:47:26;;;;;;;;;;;;;;;22.97;54.39;95178.56;10339229;28;2071;-63
2023/09/18 02:52:29;;;;;;;;;;;;;;;22.96;54.44;95172.50;10347676;28;1924;-63
2023/09/18 02:57:29;;;;;;;;;;;;;;;22.96;54.07;95155.84;10365167;28;1870;-62
2023/09/18 03:02:29;;;;;;;;;;;;;;;22.95;54.36;95168.31;10358356;28;2122;-63
2023/09/18 03:07:30;;;;;;;;;;;;;;;22.95;54.11;95163.03;10354345;28;1972;-63
2023/09/18 03:12:33;;;;;;;;;;;;;;;22.95;53.92;95162.25;10363835;28;1961;-63
2023/09/18 03:17:33;;;;;;;;;;;;;;;22.95;54.02;95162.25;10371753;28;1836;-63
2023/09/18 03:22:33;;;;;;;;;;;;;;;22.94;54.04;95148.22;10360564;28;1973;-63
2023/09/18 03:27:34;;;;;;;;;;;;;;;22.94;53.66;95145.59;10348524;28;1958;-63
2023/09/18 03:32:35;;;;;;;;;;;;;;;22.94;53.67;95142.16;10362949;28;2646;-63
2023/09/18 03:37:36;;;;;;;;;;;;;;;22.93;53.31;95133.47;10364280;28;2020;-62
2023/09/18 03:42:36;;;;;;;;;;;;;;;22.93;53.09;95130.03;10359463;28;4812;-63
2023/09/18 03:47:40;;;;;;;;;;;;;;;22.91;53.25;95127.72;10364339;28;1970;-63
2023/09/18 03:52:40;;;;;;;;;;;;;;;22.91;53.10;95111.06;10362391;28;1963;-63
2023/09/18 03:57:41;;;;;;;;;;;;;;;22.91;52.98;95103.13;10350726;28;1910;-63
2023/09/18 04:02:41;;;;;;;;;;;;;;;22.91;52.70;95096.00;10365505;28;1914;-63
2023/09/18 04:07:47;;;;;;;;;;;;;;;22.90;52.79;95094.41;10359310;28;1919;-63
2023/09/18 04:12:47;;;;;;;;;;;;;;;22.90;52.72;95098.91;10366416;28;1891;-63
2023/09/18 04:17:48;;;;;;;;;;;;;;;22.91;52.58;95092.56;10363553;28;2840;-63
2023/09/18 04:22:52;;;;;;;;;;;;;;;22.90;52.49;95083.06;10358311;28;1978;-63
2023/09/18 04:27:53;;;;;;;;;;;;;;;22.89;52.21;95068.31;10342540;28;1964;-62
2023/09/18 04:32:54;;;;;;;;;;;;;;;22.89;52.45;95070.94;10358727;28;1962;-63
2023/09/18 04:37:55;;;;;;;;;;;;;;;22.89;52.30;95066.44;10360246;28;3690;-62
2023/09/18 04:42:56;;;;;;;;;;;;;;;22.89;52.19;95070.94;10357981;28;4699;-63
2023/09/18 04:47:56;;;;;;;;;;;;;;;22.88;51.80;95075.44;10358572;28;1919;-63
2023/09/18 04:52:57;;;;;;;;;;;;;;;22.87;51.69;95076.53;10350917;28;1900;-63
2023/09/18 04:57:58;;;;;;;;;;;;;;;22.87;51.74;95073.13;10346641;28;1915;-63
2023/09/18 05:03:01;;;;;;;;;;;;;;;22.85;51.73;95077.94;10365027;28;2668;-63
2023/09/18 05:08:02;;;;;;;;;;;;;;;22.85;51.61;95083.22;10360433;28;1918;-63
2023/09/18 05:13:03;;;;;;;;;;;;;;;22.85;51.37;95088.50;10357157;28;1946;-63
2023/09/18 05:18:03;;;;;;;;;;;;;;;22.85;51.60;95096.44;10363103;28;1946;-63
2023/09/18 05:23:04;;;;;;;;;;;;;;;22.84;51.17;95095.63;10355740;28;2094;-63
2023/09/18 05:28:05;;;;;;;;;;;;;;;22.85;51.30;95093.78;10356409;28;1943;-63
2023/09/18 05:33:06;;;;;;;;;;;;;;;22.86;51.51;95097.97;10337494;28;1925;-63
2023/09/18 05:38:06;;;;;;;;;;;;;;;22.85;51.33;95097.22;10317051;28;1963;-63
2023/09/18 05:43:07;;;;;;;;;;;;;;;22.86;51.74;95104.03;10344811;28;4699;-63
2023/09/18 05:48:08;;;;;;;;;;;;;;;22.87;51.74;95097.69;10366784;28;2099;-63
2023/09/18 05:53:09;;;;;;;;;;;;;;;22.88;51.69;95103.72;10376522;28;2815;-63
2023/09/18 05:58:09;;;;;;;;;;;;;;;22.89;51.65;95081.53;10368105;28;2002;-63
2023/09/18 06:03:12;;;;;;;;;;;;;;;22.89;51.70;95071.75;10343583;28;1982;-63
2023/09/18 06:08:12;;;;;;;;;;;;;;;22.90;51.57;95078.56;10355969;28;2057;-64
2023/09/18 06:13:12;;;;;;;;;;;;;;;22.92;51.53;95091.47;10366199;28;1896;-63
2023/09/18 06:18:13;;;;;;;;;;;;;;;22.94;52.15;95089.31;10343674;28;1941;-62
2023/09/18 06:23:14;;;;;;;;;;;;;;;22.99;52.14;95081.25;10364878;28;2236;-63
2023/09/18 06:28:14;;;;;;;;;;;;;;;23.01;52.47;95089.66;10358066;28;2208;-63
2023/09/18 06:33:15;;;;;;;;;;;;;;;23.06;52.74;95090.28;10360633;28;1942;-63
2023/09/18 06:38:15;;;;;;;;;;;;;;;23.10;52.74;95095.78;10363516;28;2699;-63
2023/09/18 06:43:15;;;;;;;;;;;;;;;23.11;52.50;95099.97;10363660;28;4717;-61
2023/09/18 06:48:16;;;;;;;;;;;;;;;23.13;52.89;95095.94;10368039;28;1970;-63
2023/09/18 06:53:17;;;;;;;;;;;;;;;23.15;52.79;95104.34;10361810;28;1919;-63
2023/09/18 06:58:17;;;;;;;;;;;;;;;23.16;52.92;95123.63;10370399;28;2046;-62
2023/09/18 07:03:17;;;;;;;;;;;;;;;23.17;52.92;95143.69;10366524;28;1994;-63
2023/09/18 07:08:22;;;;;;;;;;;;;;;23.17;52.99;95152.41;10359690;28;2009;-63
2023/09/18 07:13:23;;;;;;;;;;;;;;;23.18;52.93;95147.91;10346783;28;1861;-63
2023/09/18 07:18:23;;;;;;;;;;;;;;;23.22;52.83;95185.88;10344253;28;1825;-63
2023/09/18 07:23:23;;;;;;;;;;;;;;;23.22;52.95;95181.38;10359031;28;2669;-63
2023/09/18 07:28:26;;;;;;;;;;;;;;;23.25;53.17;95177.31;10342049;28;1932;-62
2023/09/18 07:33:26;;;;;;;;;;;;;;;23.26;53.45;95181.53;10361355;28;2113;-62
2023/09/18 07:38:27;;;;;;;;;;;;;;;23.26;53.42;95179.69;10338770;28;1920;-62
2023/09/18 07:43:27;;;;;;;;;;;;;;;23.27;53.62;95175.94;10353519;28;4685;-62
2023/09/18 07:48:27;;;;;;;;;;;;;;;23.28;53.70;95180.16;10358287;28;1873;-62
2023/09/18 07:53:27;;;;;;;;;;;;;;;23.31;53.49;95170.81;10344724;28;1901;-63
2023/09/18 07:58:28;;;;;;;;;;;;;;;;;;10351764;28;1959;-62
2023/09/18 08:03:28;;;;;;;;;;;;;;;;;;10359402;28;1915;-62
2023/09/18 08:08:30;;;;;;;;;;;;;;;23.36;53.77;95213.03;10355706;28;2585;-63
2023/09/18 08:13:30;;;;;;;;;;;;;;;23.38;53.96;95216.16;10341227;28;2038;-62
2023/09/18 08:18:31;;;;;;;;;;;;;;;23.39;54.00;95215.06;10353779;28;1875;-62
2023/09/18 08:23:32;;;;;;;;;;;;;;;23.39;53.74;95217.72;10339007;28;1977;-63
2023/09/18 08:28:33;;;;;;;;;;;;;;;23.40;53.86;95227.22;10353226;28;1993;-62
2023/09/18 08:33:34;;;;;;;;;;;;;;;23.42;53.95;95232.97;10346823;28;1903;-62
2023/09/18 08:38:34;;;;;;;;;;;;;;;23.42;53.96;95238.28;10353192;28;2321;-63
2023/09/18 08:43:34;;;;;;;;;;;;;;;23.44;54.18;95242.19;10357534;28;4694;-63
2023/09/18 08:48:35;;;;;;;;;;;;;;;23.44;54.01;95251.97;10335399;28;2109;-63
2023/09/18 08:53:35;;;;;;;;;;;;;;;23.45;54.20;95259.59;10346430;28;2850;-63
2023/09/18 08:58:39;;;;;;;;;;;;;;;23.46;54.13;95257.75;10356328;28;1834;-63
2023/09/18 09:03:40;;;;;;;;;;;;;;;23.47;54.20;95269.91;10352887;28;1920;-63
2023/09/18 09:08:40;;;;;;;;;;;;;;;23.47;54.30;95277.84;10351158;28;1901;-63
2023/09/18 09:13:40;;;;;;;;;;;;;;;23.48;54.15;95289.19;10358760;28;1853;-63
2023/09/18 09:18:48;;;;;;;;;;;;;;;23.48;54.17;95284.69;10364265;28;2002;-63
2023/09/18 09:23:55;;;;;;;;;;;;;;;23.49;54.41;95269.59;10356358;28;1965;-63
2023/09/18 09:28:56;;;;;;;;;;;;;;;23.49;54.18;95269.59;10349097;28;1880;-63
2023/09/18 09:33:56;;;;;;;;;;;;;;;23.48;54.45;95274.09;10363847;28;1841;-62
2023/09/18 09:38:57;;;;;;;;;;;;;;;23.49;54.27;95270.38;10357010;28;3035;-63
2023/09/18 09:43:58;;;;;;;;;;;;;;;23.49;54.28;95267.72;10329737;28;1977;-63
2023/09/18 09:49:01;;;;;;;;;;;;;;;23.51;54.43;95284.09;10362077;28;1911;-63
2023/09/18 09:54:02;;;;;;;;;;;;;;;23.52;54.65;95290.13;10357117;28;1924;-63
2023/09/18 09:59:08;;;;;;;;;;;;;;;23.52;54.30;95304.16;10360430;28;1817;-63
2023/09/18 10:04:09;;;;;;;;;;;;;;;23.53;54.38;95299.66;10351445;28;1926;-62
2023/09/18 10:09:10;;;;;;;;;;;;;;;23.54;54.53;95301.97;10346751;28;1827;-62
2023/09/18 10:14:17;;;;;;;;;;;;;;;23.54;54.32;95298.53;10344773;28;1755;-62
2023/09/18 10:19:41;;;;;;;;;;;;;;;23.55;54.62;95294.84;10362414;28;1888;-63
2023/09/18 10:24:41;;;;;;;;;;;;;;;23.57;54.04;95304.03;10324969;28;2809;-63
2023/09/18 10:29:41;;;;;;;;;;;;;;;23.57;54.32;95293.44;10352408;28;1890;-62
2023/09/18 10:34:41;;;;;;;;;;;;;;;23.58;54.21;95300.28;10357106;28;1879;-61
2023/09/18 10:39:43;;;;;;;;;;;;;;;23.59;54.10;95314.31;10344860;28;1859;-63
2023/09/18 10:44:44;;;;;;;;;;;;;;;23.63;54.15;95323.19;10364797;28;4762;-62
2023/09/18 10:49:44;;;;;;;;;;;;;;;23.65;54.16;95321.03;10338484;28;2187;-62
2023/09/18 10:54:44;;;;;;;;;;;;;;;23.63;54.49;95324.00;10341473;28;1780;-63
2023/09/18 10:59:48;;;;;;;;;;;;;;;23.64;54.35;95312.31;10339236;28;1813;-62
2023/09/18 11:04:48;;;;;;;;;;;;;;;23.65;54.40;95315.75;10365913;28;1968;-62
2023/09/18 11:09:48;;;;;;;;;;;;;;;23.66;54.06;95310.13;10358703;28;2785;-62
2023/09/18 11:14:49;;;;;;;;;;;;;;;23.67;54.27;95324.94;10363389;28;1794;-62
2023/09/18 11:19:49;;;;;;;;;;;;;;;23.67;54.42;95321.50;10364160;28;1888;-61
2023/09/18 11:24:52;;;;;;;;;;;;;;;23.66;54.48;95333.19;10353630;28;1907;-60
2023/09/18 11:29:52;;;;;;;;;;;;;;;23.66;54.47;95341.88;10349911;28;1848;-62
2023/09/18 11:34:59;;;;;;;;;;;;;;;23.68;54.17;95357.50;10366151;28;1927;-62
2023/09/18 11:39:59;;;;;;;;;;;;;;;23.68;54.05;95362.78;10352104;28;4681;-62
2023/09/18 11:44:59;;;;;;;;;;;;;;;23.67;54.13;95371.78;10351805;28;1906;-62
2023/09/18 11:50:00;;;;;;;;;;;;;;;23.67;54.18;95393.75;10331195;28;2056;-62
2023/09/18 11:55:00;;;;;;;;;;;;;;;23.66;53.96;95402.75;10332672;28;1922;-62
2023/09/18 12:00:11;;;;;;;;;;;;;;;23.66;53.99;95418.63;10356353;28;1893;-62
2023/09/18 12:05:15;;;;;;;;;;;;;;;23.64;54.03;95420.78;10361369;28;1914;-62
2023/09/18 12:10:17;;;;;;;;;;;;;;;23.65;53.97;95427.66;10349733;28;2907;-62
2023/09/18 12:15:17;;;;;;;;;;;;;;;23.64;53.48;95423.44;10346614;28;1926;-62
2023/09/18 12:20:20;;;;;;;;;;;;;;;23.64;54.00;95438.56;10334174;28;1919;-62
2023/09/18 12:25:23;;;;;;;;;;;;;;;23.64;53.66;95449.16;10350078;28;1947;-62
2023/09/18 12:30:25;;;;;;;;;;;;;;;23.61;53.81;95463.75;10346445;28;1887;-62
2023/09/18 12:35:29;;;;;;;;;;;;;;;23.61;53.69;95474.34;10335286;28;1886;-62
2023/09/18 12:40:30;;;;;;;;;;;;;;;23.60;53.66;95483.34;10357918;28;4643;-62
2023/09/18 12:45:30;;;;;;;;;;;;;;;23.59;53.64;95478.34;10351533;28;1931;-62
2023/09/18 12:50:30;;;;;;;;;;;;;;;23.58;53.60;95474.91;10346645;28;1882;-62
2023/09/18 12:55:31;;;;;;;;;;;;;;;23.59;53.54;95491.59;10355638;28;2662;-62
2023/09/18 13:00:31;;;;;;;;;;;;;;;23.58;53.50;95501.38;10348578;28;2036;-64
2023/09/18 13:05:35;;;;;;;;;;;;;;;23.78;53.27;95506.22;10351259;28;2113;-62
2023/09/18 13:10:44;;;;;;;;;;;;;;;23.93;53.20;95505.88;10359519;28;2025;-64
2023/09/18 13:15:47;;;;;;;;;;;;;;;24.06;52.99;95513.00;10347920;28;1931;-64
2023/09/18 13:20:47;;;;;;;;;;;;;;;24.16;52.88;95512.75;10352972;28;1943;-63
2023/09/18 13:25:47;;;;;;;;;;;;;;;24.28;52.69;95522.03;10358762;28;2016;-65
2023/09/18 13:30:47;;;;;;;;;;;;;;;24.37;52.66;95528.16;10351397;28;1876;-64
2023/09/18 13:35:48;;;;;;;;;;;;;;;24.43;52.46;95522.44;10346463;28;1885;-65
2023/09/18 13:40:48;;;;;;;;;;;;;;;24.48;52.21;95517.03;10358599;28;4935;-63
2023/09/18 13:45:51;;;;;;;;;;;;;;;24.36;52.05;95513.38;10339660;28;1914;-63
2023/09/18 13:50:52;;;;;;;;;;;;;;;24.28;52.22;95503.50;10356533;28;1997;-63
2023/09/18 13:55:52;;;;;;;;;;;;;;;24.21;52.45;95511.88;10362337;28;1982;-63
2023/09/18 14:00:53;;;;;;;;;;;;;;;24.14;52.49;95491.09;10348023;28;1935;-63
2023/09/18 14:05:53;;;;;;;;;;;;;;;24.09;52.67;95485.16;10354476;28;2547;-65
2023/09/18 14:10:53;;;;;;;;;;;;;;;24.03;52.94;95460.66;10357607;28;1967;-63
2023/09/18 14:15:54;;;;;;;;;;;;;;;24.00;53.12;95461.22;10360316;28;1888;-63
2023/09/18 14:20:54;;;;;;;;;;;;;;;23.95;53.31;95440.16;10356539;28;1973;-63
2023/09/18 14:25:55;;;;;;;;;;;;;;;23.92;53.39;95427.53;10350957;28;1986;-63
2023/09/18 14:30:55;;;;;;;;;;;;;;;23.91;53.44;95411.94;10357357;28;1938;-63
2023/09/18 14:35:55;;;;;;;;;;;;;;;23.88;53.76;95380.78;10354401;28;1949;-63
2023/09/18 14:41:02;;;;;;;;;;;;;;;23.86;53.57;95380.31;10370844;28;4659;-63
2023/09/18 14:46:04;;;;;;;;;;;;;;;23.83;53.58;95378.25;10350964;28;2013;-63
2023/09/18 14:51:04;;;;;;;;;;;;;;;23.81;53.66;95373.28;10360961;28;1929;-63
2023/09/18 14:56:04;;;;;;;;;;;;;;;23.80;53.60;95377.00;10345643;28;1956;-63
2023/09/18 15:01:06;;;;;;;;;;;;;;;23.79;53.78;95383.38;10363626;28;1906;-63
2023/09/18 15:06:07;;;;;;;;;;;;;;;23.77;53.71;95369.69;10344530;28;1958;-62
2023/09/18 15:11:07;;;;;;;;;;;;;;;23.76;53.83;95370.75;10356280;28;1957;-63
2023/09/18 15:16:08;;;;;;;;;;;;;;;23.76;53.94;95365.44;10367078;28;1983;-63
2023/09/18 15:21:08;;;;;;;;;;;;;;;23.74;53.98;95353.63;10358517;28;1964;-63
2023/09/18 15:26:08;;;;;;;;;;;;;;;23.74;53.92;95329.81;10318657;28;1997;-63
2023/09/18 15:31:09;;;;;;;;;;;;;;;23.73;54.12;95329.03;10341480;28;1917;-63
2023/09/18 15:36:09;;;;;;;;;;;;;;;23.73;54.08;95352.84;10365906;28;1944;-63
2023/09/18 15:41:09;;;;;;;;;;;;;;;23.73;54.14;95368.72;10368376;28;4655;-63
2023/09/18 15:46:10;;;;;;;;;;;;;;;23.73;53.93;95370.56;10357325;28;1987;-63
2023/09/18 15:51:10;;;;;;;;;;;;;;;23.71;54.01;95376.19;10364093;28;1866;-62
2023/09/18 15:56:11;;;;;;;;;;;;;;;23.71;54.03;95376.19;10358252;28;1956;-62
2023/09/18 16:01:13;;;;;;;;;;;;;;;23.70;54.19;95371.97;10341957;28;1842;-62
2023/09/18 16:06:14;;;;;;;;;;;;;;;23.71;54.13;95372.75;10335014;28;2000;-62
2023/09/18 16:11:15;;;;;;;;;;;;;;;23.74;54.14;95372.91;10356753;28;2047;-63
2023/09/18 16:16:15;;;;;;;;;;;;;;;23.71;54.25;95357.66;10334197;28;2095;-63
2023/09/18 16:21:15;;;;;;;;;;;;;;;23.75;54.27;95347.25;10343749;28;1815;-63
2023/09/18 16:26:15;;;;;;;;;;;;;;;23.74;54.72;95337.75;10357224;28;2564;-63
2023/09/18 16:31:16;;;;;;;;;;;;;;;23.75;54.70;95332.16;10346370;28;1959;-62
2023/09/18 16:36:16;;;;;;;;;;;;;;;23.77;54.69;95323.91;10356597;28;1862;-62
2023/09/18 16:41:16;;;;;;;;;;;;;;;23.78;54.71;95315.66;10363589;28;4675;-64
2023/09/18 16:46:16;;;;;;;;;;;;;;;23.94;54.54;95303.59;10329364;28;1914;-63
2023/09/18 16:51:17;;;;;;;;;;;;;;;24.03;54.05;95317.66;10354038;28;1834;-62
2023/09/18 16:56:17;;;;;;;;;;;;;;;24.14;54.01;95304.94;10331788;28;1989;-64
2023/09/18 17:01:17;;;;;;;;;;;;;;;24.22;53.77;95299.66;10344641;28;2038;-63
2023/09/18 17:06:17;;;;;;;;;;;;;;;24.31;53.51;95301.56;10355780;28;1969;-63
2023/09/18 17:11:18;;;;;;;;;;;;;;;24.28;53.61;95308.25;10357727;28;2549;-62
2023/09/18 17:16:19;;;;;;;;;;;;;;;24.24;53.23;95305.44;10354039;28;1977;-62
2023/09/18 17:21:20;;;;;;;;;;;;;;;24.21;53.24;95290.16;10359090;28;1968;-62
2023/09/18 17:26:22;;;;;;;;;;;;;;;24.15;53.16;95285.31;10347251;28;1906;-62
2023/09/18 17:31:40;;;;;;;;;;;;;;;24.09;53.06;95282.03;10361182;28;1896;-62
2023/09/18 17:36:42;;;;;;;;;;;;;;;24.03;53.15;95271.84;10362159;28;1945;-62
2023/09/18 17:41:43;;;;;;;;;;;;;;;23.98;52.92;95277.28;10347606;28;2072;-62
2023/09/18 17:46:44;;;;;;;;;;;;;;;23.92;52.92;95294.41;10341227;28;1962;-62
2023/09/18 17:51:44;;;;;;;;;;;;;;;23.88;52.70;95282.84;10364139;28;1901;-62
2023/09/18 17:56:45;;;;;;;;;;;;;;;23.83;52.81;95275.81;10364117;28;1989;-62
2023/09/18 18:01:45;;;;;;;;;;;;;;;23.80;52.89;95276.41;10359245;28;1939;-62
2023/09/18 18:06:45;;;;;;;;;;;;;;;23.71;52.61;95280.13;10364159;28;2015;-63
2023/09/18 18:11:46;;;;;;;;;;;;;;;23.64;52.68;95279.78;10370942;28;2606;-63
2023/09/18 18:16:46;;;;;;;;;;;;;;;23.61;52.61;95280.38;10367685;28;1595;-62
2023/09/18 18:21:46;;;;;;;;;;;;;;;23.58;52.59;95279.13;10367912;28;1571;-62
2023/09/18 18:26:46;;;;;;;;;;;;;;;23.59;52.51;95301.06;10368001;28;1982;-62
2023/09/18 18:31:49;;;;;;;;;;;;;;;23.57;52.59;95305.88;10363053;28;1489;-63
2023/09/18 18:36:52;;;;;;;;;;;;;;;23.56;52.34;95297.16;10348719;28;1995;-63
2023/09/18 18:41:52;;;;;;;;;;;;;;;23.56;52.06;95307.75;10364370;28;4767;-63
2023/09/18 18:46:52;;;;;;;;;;;;;;;23.58;51.97;95308.22;10370632;28;2005;-64
2023/09/18 18:51:53;;;;;;;;;;;;;;;23.61;52.10;95314.78;10368826;28;1462;-63
2023/09/18 18:56:53;;;;;;;;;;;;;;;23.60;51.56;95321.94;10371430;28;2493;-62
2023/09/18 19:01:54;;;;;;;;;;;;;;;23.65;51.51;95326.31;10362438;28;1596;-64
2023/09/18 19:06:55;;;;;;;;;;;;;;;23.67;51.33;95319.66;10363153;28;1965;-64
2023/09/18 19:11:55;;;;;;;;;;;;;;;23.62;51.44;95325.06;10364491;28;1847;-63
2023/09/18 19:16:55;;;;;;;;;;;;;;;23.61;51.35;95314.78;10363557;28;1500;-63
2023/09/18 19:21:56;;;;;;;;;;;;;;;23.59;51.21;95315.09;10361553;28;1574;-62
2023/09/18 19:26:56;;;;;;;;;;;;;;;23.61;51.00;95298.91;10361047;28;1902;-63
2023/09/18 19:31:56;;;;;;;;;;;;;;;23.52;50.91;95295.44;10366263;28;1757;-63
2023/09/18 19:36:56;;;;;;;;;;;;;;;23.49;50.81;95280.16;10371223;28;1471;-62
2023/09/18 19:42:02;;;;;;;;;;;;;;;23.50;51.01;95321.41;10372359;28;4619;-63
2023/09/18 19:47:03;;;;;;;;;;;;;;;23.50;51.01;95329.34;10366975;28;1997;-62
2023/09/18 19:52:05;;;;;;;;;;;;;;;23.47;50.75;95335.25;10365644;28;1446;-63
2023/09/18 19:57:05;;;;;;;;;;;;;;;23.40;50.67;95346.25;10366272;28;1884;-62
2023/09/18 20:02:06;;;;;;;;;;;;;;;23.42;50.78;95331.63;10352547;28;1432;-63
2023/09/18 20:07:08;;;;;;;;;;;;;;;23.43;50.66;95337.72;10377423;28;2030;-63
2023/09/18 20:12:09;;;;;;;;;;;;;;;23.43;50.52;95335.06;10371098;28;1797;-62
2023/09/18 20:17:09;;;;;;;;;;;;;;;23.50;50.37;95329.34;10346109;28;1491;-61
2023/09/18 20:22:09;;;;;;;;;;;;;;;23.44;50.40;95320.75;10352624;28;1812;-61
2023/09/18 20:27:10;;;;;;;;;;;;;;;23.43;50.11;95335.84;10366460;28;2639;-64
2023/09/18 20:32:12;;;;;;;;;;;;;;;23.44;50.16;95334.75;10365259;28;1541;-63
2023/09/18 20:37:12;;;;;;;;;;;;;;;23.42;50.08;95333.50;10349159;28;2103;-63
2023/09/18 20:42:13;;;;;;;;;;;;;;;23.42;49.92;95331.63;10346709;28;4814;-63
2023/09/18 20:47:13;;;;;;;;;;;;;;;23.45;50.53;95325.72;10348448;28;1983;-63
2023/09/18 20:52:13;;;;;;;;;;;;;;;23.50;50.61;95330.13;10350945;28;1881;-62
2023/09/18 20:57:16;;;;;;;;;;;;;;;23.54;51.13;95325.00;10357088;28;1778;-62
2023/09/18 21:02:18;;;;;;;;;;;;;;;23.54;51.11;95335.59;10364785;28;1880;-62
2023/09/18 21:07:19;;;;;;;;;;;;;;;23.56;51.25;95338.72;10361056;28;1910;-62
2023/09/18 21:12:22;;;;;;;;;;;;;;;23.54;51.16;95346.16;10370115;28;1861;-62
2023/09/18 21:17:22;;;;;;;;;;;;;;;23.52;51.14;95343.03;10370952;28;1923;-62
2023/09/18 21:22:23;;;;;;;;;;;;;;;23.47;51.35;95343.97;10376273;28;1846;-62
2023/09/18 21:27:24;;;;;;;;;;;;;;;23.46;51.31;95334.44;10368101;28;2541;-62
2023/09/18 21:32:25;;;;;;;;;;;;;;;23.42;51.32;95339.56;10350630;28;1862;-61
2023/09/18 21:37:25;;;;;;;;;;;;;;;23.42;51.43;95344.06;10362972;28;1853;-62
2023/09/18 21:42:25;;;;;;;;;;;;;;;23.42;51.27;95354.66;10362132;28;4778;-61
2023/09/18 21:47:25;;;;;;;;;;;;;;;23.39;51.22;95360.53;10357536;28;2030;-62
2023/09/18 21:52:26;;;;;;;;;;;;;;;23.38;51.17;95353.69;10361602;28;1896;-62
2023/09/18 21:57:26;;;;;;;;;;;;;;;23.36;51.28;95366.44;10364465;28;1895;-61
2023/09/18 22:02:26;;;;;;;;;;;;;;;23.35;51.39;95364.88;10366706;28;1672;-61
2023/09/18 22:07:26;;;;;;;;;;;;;;;;;;10365571;28;1960;-62
2023/09/18 22:12:26;;;;;;;;;;;;;;;23.33;51.38;95364.38;10362680;28;1909;-62
2023/09/18 22:17:27;;;;;;;;;;;;;;;23.31;51.33;95364.66;10356227;28;1833;-62
2023/09/18 22:22:29;;;;;;;;;;;;;;;23.31;51.00;95366.50;10359344;28;1875;-62
2023/09/18 22:27:29;;;;;;;;;;;;;;;23.30;51.25;95354.38;10367449;28;2355;-62
2023/09/18 22:32:30;;;;;;;;;;;;;;;23.30;51.08;95357.81;10362038;28;1775;-63
2023/09/18 22:37:30;;;;;;;;;;;;;;;23.29;51.18;95363.38;10362789;28;1858;-62
2023/09/18 22:42:49;;;;;;;;;;;;;;;23.28;51.17;95344.13;10366110;28;4772;-61
2023/09/18 22:48:08;;;;;;;;;;;;;;;23.28;51.06;95359.19;10371877;28;1841;-61
2023/09/18 22:53:09;;;;;;;;;;;;;;;23.28;51.00;95356.56;10373976;28;1861;-62
2023/09/18 22:58:09;;;;;;;;;;;;;;;23.28;51.13;95353.91;10366287;28;1855;-62
2023/09/18 23:03:09;;;;;;;;;;;;;;;23.26;50.94;95362.16;10348199;28;1910;-62
2023/09/18 23:08:10;;;;;;;;;;;;;;;23.27;50.92;95358.41;10363918;28;1854;-62
2023/09/18 23:13:10;;;;;;;;;;;;;;;23.26;50.89;95356.06;10370556;28;2405;-62
2023/09/18 23:18:11;;;;;;;;;;;;;;;23.26;50.95;95353.44;10359878;28;1912;-62
2023/09/18 23:23:11;;;;;;;;;;;;;;;23.24;50.90;95369.59;10363537;28;1981;-62
2023/09/18 23:28:15;;;;;;;;;;;;;;;23.24;50.67;95371.44;10353891;28;2021;-58
2023/09/18 23:33:15;;;;;;;;;;;;;;;23.25;50.85;95376.44;10358220;28;2002;-62
2023/09/18 23:38:17;;;;;;;;;;;;;;;23.24;51.02;95382.81;10379429;28;1782;-62
2023/09/18 23:43:17;;;;;;;;;;;;;;;23.24;50.79;95384.69;10350391;28;4615;-62
2023/09/18 23:48:18;;;;;;;;;;;;;;;23.24;50.79;95379.38;10353913;28;1916;-62
2023/09/18 23:53:18;;;;;;;;;;;;;;;23.24;50.46;95379.38;10362522;28;1893;-62
2023/09/18 23:58:20;;;;;;;;;;;;;;;23.23;50.70;95369.88;10368206;28;1857;-62
